Terminal Aerodrome Forecast
Issued by NWS

Home | Current Version | Previous Version | Text Only | Print | Product List | Glossary On
Versions: 1 2 3 4 5 6 7 8 9 10 11 12 13 14 15 16
000
FTAK31 PANC 081730
TAFAEN
TAF
PAEN 081730Z 0818/0918 08008KT P6SM VCSH BKN035
     FM082000 04015G22KT P6SM SCT050 BKN100
     FM090500 02015KT P6SM -SHSN SCT030 BKN050
     FM091400 02012KT P6SM BKN070=

USA.gov is the U.S. government's official web portal to all federal, state and local government web resources and services.